createdAt,value
2023-04-10T00:02:22.843Z,9.88
2023-04-10T00:04:51.026Z,8.32
2023-04-10T00:07:18.398Z,7.00
2023-04-10T00:09:45.726Z,8.95
2023-04-10T00:12:13.069Z,9.38
2023-04-10T00:14:40.510Z,11.20
2023-04-10T00:17:07.959Z,8.82
2023-04-10T00:19:35.225Z,8.68
2023-04-10T00:22:02.504Z,8.77
2023-04-10T00:24:29.800Z,6.68
2023-04-10T00:26:57.642Z,8.15
2023-04-10T00:29:25.588Z,9.75
2023-04-10T00:31:52.997Z,8.38
2023-04-10T00:34:20.382Z,7.88
2023-04-10T00:36:47.669Z,7.57
2023-04-10T00:39:14.970Z,7.18
2023-04-10T00:41:42.229Z,6.68
2023-04-10T00:44:09.449Z,7.00
2023-04-10T00:46:38.426Z,5.93
2023-04-10T00:49:06.444Z,6.78
2023-04-10T00:51:33.887Z,7.13
2023-04-10T00:54:02.867Z,9.55
2023-04-10T00:56:32.314Z,6.63
2023-04-10T00:58:59.660Z,8.52
2023-04-10T01:01:26.993Z,8.50
2023-04-10T01:03:54.937Z,8.10
2023-04-10T01:06:30.770Z,7.32
2023-04-10T01:08:57.973Z,6.18
2023-04-10T01:11:30.835Z,7.07
2023-04-10T01:14:21.055Z,9.50
2023-04-10T01:16:54.523Z,8.88
2023-04-10T01:19:40.317Z,10.57
2023-04-10T01:22:11.962Z,9.23
2023-04-10T01:24:48.455Z,9.68
2023-04-10T01:27:31.548Z,8.13
2023-04-10T01:30:02.325Z,9.55
2023-04-10T01:32:31.543Z,12.00
2023-04-10T01:34:59.759Z,9.98
2023-04-10T01:37:31.230Z,10.90
2023-04-10T01:40:00.486Z,11.02
2023-04-10T01:42:29.172Z,6.55
2023-04-10T01:44:56.828Z,7.75
2023-04-10T01:47:25.181Z,9.88
2023-04-10T01:49:53.765Z,7.65
2023-04-10T01:52:21.912Z,8.00
2023-04-10T01:54:49.798Z,7.78
2023-04-10T01:57:17.338Z,10.75
2023-04-10T01:59:44.692Z,7.30
2023-04-10T02:02:12.360Z,10.85
2023-04-10T02:04:40.786Z,8.60
2023-04-10T02:07:13.024Z,7.60
2023-04-10T02:09:49.308Z,7.05
2023-04-10T02:12:23.006Z,8.02
2023-04-10T02:14:51.307Z,9.10
2023-04-10T02:17:22.088Z,8.57
2023-04-10T02:19:49.889Z,8.20
2023-04-10T02:22:17.783Z,14.00
2023-04-10T02:24:45.136Z,9.77
2023-04-10T02:27:12.354Z,9.57
2023-04-10T02:29:39.602Z,12.52
2023-04-10T02:32:07.381Z,12.05
2023-04-10T02:34:34.666Z,10.75
2023-04-10T02:37:02.104Z,12.10
2023-04-10T02:39:29.345Z,46.33
2023-04-10T02:41:57.156Z,187.07
2023-04-10T02:44:24.388Z,22.05
2023-04-10T02:46:51.623Z,15.23
2023-04-10T02:49:18.921Z,14.13
2023-04-10T02:51:46.210Z,14.60
2023-04-10T02:54:13.485Z,14.75
2023-04-10T02:56:40.897Z,13.25
2023-04-10T02:59:08.256Z,10.18
2023-04-10T03:01:35.736Z,19.67
2023-04-10T03:04:04.134Z,9.30
2023-04-10T03:06:31.590Z,9.60
2023-04-10T03:08:58.833Z,7.65
2023-04-10T03:11:26.120Z,12.32
2023-04-10T03:13:53.857Z,9.40
2023-04-10T03:16:21.556Z,7.88
2023-04-10T03:18:48.864Z,7.75
2023-04-10T03:21:16.676Z,8.45
2023-04-10T03:23:43.923Z,8.38
2023-04-10T03:26:11.356Z,13.07
2023-04-10T03:28:39.843Z,9.07
2023-04-10T03:31:07.435Z,9.23
2023-04-10T03:33:34.728Z,8.07
2023-04-10T03:36:02.231Z,8.68
2023-04-10T03:38:29.473Z,9.75
2023-04-10T03:40:56.763Z,9.48
2023-04-10T03:43:23.985Z,7.80
2023-04-10T03:45:51.221Z,13.43
2023-04-10T03:48:18.600Z,8.07
2023-04-10T03:50:45.868Z,8.13
2023-04-10T03:53:13.155Z,7.93
2023-04-10T03:55:41.229Z,6.70
2023-04-10T03:58:08.552Z,7.15
2023-04-10T04:00:35.947Z,8.40
2023-04-10T04:03:05.184Z,5.18
2023-04-10T04:05:32.874Z,7.03
2023-04-10T04:08:00.158Z,8.43
2023-04-10T04:10:27.444Z,7.05
2023-04-10T04:12:54.923Z,7.13
2023-04-10T04:15:23.923Z,5.82
2023-04-10T04:17:51.356Z,6.90
2023-04-10T04:20:18.731Z,6.25
2023-04-10T04:22:46.433Z,9.52
2023-04-10T04:25:13.802Z,5.93
2023-04-10T04:27:41.742Z,6.22
2023-04-10T04:30:09.258Z,6.57
2023-04-10T04:32:36.556Z,8.07
2023-04-10T04:35:03.858Z,5.63
2023-04-10T04:37:31.265Z,8.85
2023-04-10T04:39:58.528Z,11.85
2023-04-10T04:42:25.811Z,19.60
2023-04-10T04:44:53.134Z,19.13
2023-04-10T04:47:20.596Z,21.73
2023-04-10T04:49:48.053Z,23.75
2023-04-10T04:52:17.908Z,27.42
2023-04-10T04:54:45.442Z,25.33
2023-04-10T04:57:12.761Z,29.77
2023-04-10T04:59:39.975Z,27.67
2023-04-10T05:02:07.312Z,23.70
2023-04-10T05:04:35.092Z,26.60
2023-04-10T05:07:02.378Z,23.40
2023-04-10T05:09:29.641Z,26.58
2023-04-10T05:11:57.096Z,23.08
2023-04-10T05:14:24.374Z,21.98
2023-04-10T05:16:51.745Z,20.38
2023-04-10T05:19:19.010Z,14.45
2023-04-10T05:21:46.284Z,14.38
2023-04-10T05:24:13.551Z,25.20
2023-04-10T05:26:42.590Z,14.18
2023-04-10T05:29:09.855Z,13.65
2023-04-10T05:31:37.245Z,15.88
2023-04-10T05:34:04.578Z,11.13
2023-04-10T05:36:32.728Z,13.18
2023-04-10T05:39:00.056Z,12.88
2023-04-10T05:41:27.321Z,15.15
2023-04-10T05:43:54.553Z,14.77
2023-04-10T05:46:21.808Z,13.90
2023-04-10T05:48:49.396Z,13.88
2023-04-10T05:51:16.665Z,19.20
2023-04-10T05:53:43.954Z,15.80
2023-04-10T05:56:11.240Z,13.70
2023-04-10T05:58:38.491Z,19.33
2023-04-10T06:01:05.960Z,17.83
2023-04-10T06:03:33.309Z,13.25
2023-04-10T06:06:02.584Z,12.98
2023-04-10T06:08:29.989Z,15.60
2023-04-10T06:10:57.428Z,15.95
2023-04-10T06:13:24.853Z,12.95
2023-04-10T06:15:52.219Z,19.65
2023-04-10T06:18:19.681Z,13.20
2023-04-10T06:20:46.958Z,13.52
2023-04-10T06:23:14.810Z,13.95
2023-04-10T06:25:42.375Z,18.48
2023-04-10T06:28:09.654Z,14.50
2023-04-10T06:30:37.426Z,18.50
2023-04-10T06:33:04.713Z,15.25
2023-04-10T06:35:32.887Z,12.48
2023-04-10T06:38:00.445Z,12.88
2023-04-10T06:40:29.492Z,14.35
2023-04-10T06:42:56.890Z,11.07
2023-04-10T06:45:24.211Z,11.50
2023-04-10T06:47:51.723Z,13.02
2023-04-10T06:50:19.280Z,11.35
2023-04-10T06:52:46.668Z,11.73
2023-04-10T06:55:14.104Z,11.20
2023-04-10T06:57:42.108Z,13.07
2023-04-10T07:00:09.753Z,12.38
2023-04-10T07:02:37.016Z,15.80
2023-04-10T07:05:04.335Z,13.43
2023-04-10T07:07:31.627Z,14.65
2023-04-10T07:09:58.928Z,12.32
2023-04-10T07:12:26.880Z,14.05
2023-04-10T07:14:54.421Z,15.27
2023-04-10T07:17:22.079Z,14.57
2023-04-10T07:19:49.382Z,17.85
2023-04-10T07:22:16.704Z,11.65
2023-04-10T07:24:44.333Z,13.80
2023-04-10T07:27:12.952Z,14.82
2023-04-10T07:29:40.186Z,13.90
2023-04-10T07:32:07.561Z,11.98
2023-04-10T07:34:34.843Z,12.02
2023-04-10T07:37:02.103Z,14.43
2023-04-10T07:39:29.387Z,19.42
2023-04-10T07:41:56.783Z,21.35
2023-04-10T07:44:26.940Z,18.98
2023-04-10T07:46:54.203Z,14.07
2023-04-10T07:49:21.443Z,14.57
2023-04-10T07:51:48.742Z,13.77
2023-04-10T07:54:16.025Z,13.48
2023-04-10T07:56:43.248Z,19.77
2023-04-10T07:59:10.806Z,15.73
2023-04-10T08:01:38.081Z,14.60
2023-04-10T08:04:06.214Z,12.70
2023-04-10T08:06:33.732Z,11.20
2023-04-10T08:09:02.033Z,12.23
2023-04-10T08:11:30.743Z,18.77
2023-04-10T08:13:59.485Z,10.45
2023-04-10T08:16:27.305Z,12.63
2023-04-10T08:18:55.162Z,13.05
2023-04-10T08:21:23.101Z,12.23
2023-04-10T08:24:00.247Z,13.50
2023-04-10T08:26:28.849Z,7.78
2023-04-10T08:28:57.512Z,6.63
2023-04-10T08:31:25.900Z,8.75
2023-04-10T08:33:53.853Z,9.07
2023-04-10T08:36:21.774Z,5.60
2023-04-10T08:38:49.557Z,3.38
2023-04-10T08:41:18.701Z,5.97
2023-04-10T08:43:46.557Z,7.53
2023-04-10T08:46:16.914Z,19.20
2023-04-10T08:48:48.804Z,13.63
2023-04-10T08:51:20.699Z,17.50
2023-04-10T08:53:55.079Z,13.85
2023-04-10T08:56:23.018Z,13.13
2023-04-10T08:58:51.825Z,12.38
2023-04-10T09:01:21.311Z,17.20
2023-04-10T09:03:49.041Z,20.80
2023-04-10T09:06:16.433Z,17.50
2023-04-10T09:08:43.683Z,21.38
2023-04-10T09:11:13.538Z,18.33
2023-04-10T09:13:42.369Z,23.27
2023-04-10T09:16:11.106Z,23.38
2023-04-10T09:18:42.757Z,21.10
2023-04-10T09:21:14.107Z,24.80
2023-04-10T09:23:42.408Z,13.48
2023-04-10T09:26:29.613Z,9.43
2023-04-10T09:28:58.137Z,12.27
2023-04-10T09:31:30.555Z,7.00
2023-04-10T09:34:27.074Z,10.13
2023-04-10T09:36:55.945Z,10.57
2023-04-10T09:39:23.592Z,12.52
2023-04-10T09:41:52.057Z,14.32
2023-04-10T09:44:31.044Z,12.70
2023-04-10T09:46:58.844Z,11.82
2023-04-10T09:49:26.148Z,11.63
2023-04-10T09:51:53.474Z,10.55
2023-04-10T09:54:36.281Z,9.38
2023-04-10T09:57:03.781Z,9.18
2023-04-10T09:59:31.069Z,9.88
2023-04-10T10:01:58.539Z,10.38
2023-04-10T10:04:26.594Z,12.20
2023-04-10T10:06:54.019Z,9.38
2023-04-10T10:09:21.534Z,8.75
2023-04-10T10:11:50.089Z,9.80
2023-04-10T10:14:19.050Z,8.50
2023-04-10T10:16:51.446Z,7.72
2023-04-10T10:19:22.203Z,6.53
2023-04-10T10:24:16.767Z,6.57
2023-04-10T10:26:44.664Z,6.32
2023-04-10T10:29:13.509Z,5.53
2023-04-10T10:31:41.141Z,8.95
2023-04-10T10:34:09.396Z,9.50
2023-04-10T10:36:40.011Z,5.25
2023-04-10T10:39:10.453Z,4.53
2023-04-10T10:41:44.262Z,4.68
2023-04-10T10:44:17.110Z,7.47
2023-04-10T10:46:48.046Z,3.75
2023-04-10T10:51:43.963Z,6.60
2023-04-10T10:54:28.583Z,8.18
2023-04-10T10:56:56.139Z,3.67
2023-04-10T10:59:41.921Z,7.25
2023-04-10T11:02:27.333Z,6.85
2023-04-10T11:04:54.785Z,7.07
2023-04-10T11:07:22.253Z,4.95
2023-04-10T11:09:53.308Z,6.93
2023-04-10T11:12:24.492Z,4.00
2023-04-10T11:15:01.937Z,6.03
2023-04-10T11:17:49.011Z,3.03
2023-04-10T11:20:16.923Z,9.20
2023-04-10T11:23:02.777Z,4.13
2023-04-10T11:25:49.357Z,6.18
2023-04-10T11:28:35.584Z,4.97
2023-04-10T11:31:19.599Z,5.85
2023-04-10T11:33:48.050Z,6.75
2023-04-10T11:36:17.589Z,4.40
2023-04-10T11:39:14.621Z,4.32
2023-04-10T11:41:42.810Z,5.47
2023-04-10T11:44:21.305Z,6.05
2023-04-10T11:46:51.022Z,4.78
2023-04-10T11:49:19.207Z,4.30
2023-04-10T11:51:47.713Z,3.65
2023-04-10T11:54:17.264Z,8.40
2023-04-10T11:56:45.863Z,4.75
2023-04-10T11:59:19.723Z,4.22
2023-04-10T12:01:47.549Z,5.40
2023-04-10T12:04:19.364Z,5.15
2023-04-10T12:06:50.867Z,4.28
2023-04-10T12:09:21.180Z,4.72
2023-04-10T12:11:53.036Z,6.13
2023-04-10T12:14:21.736Z,7.00
2023-04-10T12:16:49.267Z,6.50
2023-04-10T12:19:18.018Z,7.93
2023-04-10T12:21:46.277Z,5.75
2023-04-10T12:24:13.703Z,5.30
2023-04-10T12:26:48.659Z,6.20
2023-04-10T12:29:15.970Z,5.93
2023-04-10T12:31:43.387Z,6.75
2023-04-10T12:34:11.435Z,9.07
2023-04-10T12:36:38.800Z,9.27
2023-04-10T12:39:06.288Z,8.55
2023-04-10T12:41:34.193Z,7.07
2023-04-10T12:44:11.647Z,9.43
2023-04-10T12:46:39.409Z,4.63
2023-04-10T12:49:10.449Z,5.60
2023-04-10T12:51:44.805Z,5.75
2023-04-10T12:54:12.328Z,8.27
2023-04-10T12:56:47.667Z,10.82
2023-04-10T12:59:14.974Z,7.45
2023-04-10T13:01:42.339Z,7.85
2023-04-10T13:04:09.742Z,6.43
2023-04-10T13:06:43.356Z,9.70
2023-04-10T13:09:10.709Z,5.97
2023-04-10T13:11:37.967Z,7.35
2023-04-10T13:14:05.582Z,5.65
2023-04-10T13:16:32.943Z,5.75
2023-04-10T13:19:00.236Z,6.82
2023-04-10T13:21:28.637Z,6.93
2023-04-10T13:23:56.547Z,7.22
2023-04-10T13:26:24.401Z,4.32
2023-04-10T13:28:51.847Z,6.35
2023-04-10T13:31:19.260Z,4.53
2023-04-10T13:33:48.129Z,7.47
2023-04-10T13:36:16.101Z,6.72
2023-04-10T13:38:43.545Z,5.25
2023-04-10T13:41:10.923Z,4.43
2023-04-10T13:43:38.292Z,7.22
2023-04-10T13:46:06.417Z,9.82
2023-04-10T13:48:40.196Z,4.28
2023-04-10T13:51:08.549Z,7.45
2023-04-10T13:53:36.109Z,5.15
2023-04-10T13:56:03.540Z,5.50
2023-04-10T13:58:32.223Z,6.80
2023-04-10T14:00:59.714Z,5.43
2023-04-10T14:03:27.304Z,5.28
2023-04-10T14:05:55.204Z,6.82
2023-04-10T14:08:22.437Z,9.25
2023-04-10T14:10:50.951Z,5.15
2023-04-10T14:13:18.531Z,5.30
2023-04-10T14:15:53.095Z,8.88
2023-04-10T14:18:20.529Z,7.35
2023-04-10T14:20:48.505Z,5.57
2023-04-10T14:23:18.681Z,8.85
2023-04-10T14:25:46.702Z,6.33
2023-04-10T14:28:18.049Z,6.00
2023-04-10T14:30:46.133Z,7.63
2023-04-10T14:33:13.513Z,4.50
2023-04-10T14:35:41.037Z,10.43
2023-04-10T14:38:08.475Z,3.88
2023-04-10T14:40:36.053Z,5.95
2023-04-10T14:43:03.336Z,8.90
2023-04-10T14:45:31.553Z,5.47
2023-04-10T14:47:58.980Z,5.13
2023-04-10T14:50:26.252Z,8.48
2023-04-10T14:52:53.571Z,5.45
2023-04-10T14:55:21.060Z,5.43
2023-04-10T14:57:48.323Z,5.57
2023-04-10T15:00:15.743Z,7.78
2023-04-10T15:02:43.127Z,8.00
2023-04-10T15:05:10.406Z,6.00
2023-04-10T15:07:37.654Z,5.30
2023-04-10T15:10:05.149Z,4.20
2023-04-10T15:12:32.479Z,5.30
2023-04-10T15:14:59.745Z,7.00
2023-04-10T15:17:27.119Z,9.32
2023-04-10T15:19:54.436Z,5.95
2023-04-10T15:22:21.692Z,6.07
2023-04-10T15:24:50.821Z,3.95
2023-04-10T15:27:23.195Z,6.70
2023-04-10T15:29:50.517Z,5.05
2023-04-10T15:32:17.878Z,3.70
2023-04-10T15:34:45.456Z,4.38
2023-04-10T15:37:12.789Z,3.72
2023-04-10T15:39:40.052Z,4.05
2023-04-10T15:42:08.440Z,6.13
2023-04-10T15:44:36.887Z,8.38
2023-04-10T15:47:04.174Z,4.68
2023-04-10T15:49:37.879Z,4.93
2023-04-10T15:52:09.147Z,18.48
2023-04-10T15:54:36.539Z,9.80
2023-04-10T15:57:04.402Z,3.33
2023-04-10T15:59:33.108Z,7.45
2023-04-10T16:02:00.712Z,6.13
2023-04-10T16:04:29.311Z,14.15
2023-04-10T16:06:56.933Z,10.90
2023-04-10T16:09:26.717Z,9.00
2023-04-10T16:11:54.833Z,8.25
2023-04-10T16:14:22.846Z,7.00
2023-04-10T16:16:51.266Z,8.55
2023-04-10T16:19:18.678Z,9.43
2023-04-10T16:21:47.020Z,7.95
2023-04-10T16:24:14.549Z,6.03
2023-04-10T16:26:44.305Z,8.85
2023-04-10T16:29:11.661Z,6.03
2023-04-10T16:31:40.167Z,7.25
2023-04-10T16:34:07.513Z,7.22
2023-04-10T16:36:34.925Z,10.95
2023-04-10T16:39:02.305Z,8.40
2023-04-10T16:41:29.739Z,10.70
2023-04-10T16:44:00.008Z,8.38
2023-04-10T16:46:27.432Z,9.30
2023-04-10T16:48:55.190Z,8.60
2023-04-10T16:51:24.567Z,9.52
2023-04-10T16:53:52.131Z,6.82
2023-04-10T16:56:19.471Z,8.55
2023-04-10T16:58:47.188Z,6.50
2023-04-10T17:01:14.872Z,11.30
2023-04-10T17:03:42.299Z,8.60
2023-04-10T17:06:09.727Z,5.95
2023-04-10T17:08:37.044Z,9.05
2023-04-10T17:11:05.173Z,7.53
2023-04-10T17:13:33.055Z,6.75
2023-04-10T17:16:00.524Z,8.63
2023-04-10T17:18:27.918Z,9.18
2023-04-10T17:20:55.285Z,9.80
2023-04-10T17:23:22.573Z,9.80
2023-04-10T17:25:49.989Z,7.30
2023-04-10T17:28:17.474Z,7.03
2023-04-10T17:30:44.911Z,9.63
2023-04-10T17:33:12.230Z,9.13
2023-04-10T17:35:39.571Z,9.95
2023-04-10T17:38:06.947Z,11.07
2023-04-10T17:40:34.417Z,5.95
2023-04-10T17:43:01.812Z,7.88
2023-04-10T17:45:29.174Z,10.38
2023-04-10T17:47:56.517Z,7.35
2023-04-10T17:50:23.986Z,8.35
2023-04-10T17:52:51.311Z,8.13
2023-04-10T17:55:20.627Z,8.45
2023-04-10T17:57:49.366Z,11.25
2023-04-10T18:00:20.016Z,10.25
2023-04-10T18:05:15.766Z,7.72
2023-04-10T18:07:43.224Z,10.00
2023-04-10T18:10:11.489Z,14.02
2023-04-10T18:12:38.911Z,11.77
2023-04-10T18:15:06.530Z,8.48
2023-04-10T18:17:33.911Z,5.95
2023-04-10T18:20:01.266Z,6.57
2023-04-10T18:22:29.427Z,4.00
2023-04-10T18:24:56.838Z,5.38
2023-04-10T18:27:24.445Z,6.38
2023-04-10T18:29:51.864Z,10.45
2023-04-10T18:32:19.216Z,5.43
2023-04-10T18:34:46.568Z,5.93
2023-04-10T18:37:13.835Z,4.57
2023-04-10T18:39:41.097Z,5.30
2023-04-10T18:42:10.866Z,6.40
2023-04-10T18:44:38.250Z,4.85
2023-04-10T18:47:05.728Z,4.57
2023-04-10T18:49:33.313Z,7.10
2023-04-10T18:52:01.117Z,6.70
2023-04-10T18:54:30.100Z,7.45
2023-04-10T18:56:57.423Z,7.05
2023-04-10T18:59:24.723Z,5.78
2023-04-10T19:01:52.025Z,11.10
2023-04-10T19:04:19.464Z,10.05
2023-04-10T19:06:46.973Z,11.77
2023-04-10T19:09:14.573Z,17.00
2023-04-10T19:11:42.768Z,16.42
2023-04-10T19:14:10.059Z,18.70
2023-04-10T19:16:37.413Z,10.85
2023-04-10T19:19:04.712Z,12.55
2023-04-10T19:21:32.016Z,16.25
2023-04-10T19:23:59.359Z,15.05
2023-04-10T19:26:26.648Z,20.02
2023-04-10T19:28:55.128Z,10.85
2023-04-10T19:31:23.996Z,22.52
2023-04-10T19:33:51.455Z,22.20
2023-04-10T19:36:19.674Z,17.92
2023-04-10T19:38:50.970Z,18.25
2023-04-10T19:41:19.505Z,19.30
2023-04-10T19:43:46.906Z,16.58
2023-04-10T19:46:18.183Z,22.80
2023-04-10T19:48:45.927Z,19.10
2023-04-10T19:51:13.787Z,21.20
2023-04-10T19:53:41.957Z,21.27
2023-04-10T19:56:09.599Z,19.30
2023-04-10T19:58:41.019Z,25.15
2023-04-10T20:01:09.547Z,19.13
2023-04-10T20:03:38.531Z,30.05
2023-04-10T20:06:15.418Z,21.08
2023-04-10T20:08:42.769Z,23.85
2023-04-10T20:11:10.052Z,21.27
2023-04-10T20:13:38.621Z,26.00
2023-04-10T20:16:07.768Z,31.85
2023-04-10T20:18:35.166Z,28.00
2023-04-10T20:21:02.462Z,21.63
2023-04-10T20:23:29.756Z,24.48
2023-04-10T20:25:57.001Z,17.98
2023-04-10T20:28:24.727Z,22.85
2023-04-10T20:30:52.008Z,23.30
2023-04-10T20:33:19.284Z,26.80
2023-04-10T20:35:46.631Z,24.33
2023-04-10T20:38:14.120Z,23.42
2023-04-10T20:40:41.407Z,22.77
2023-04-10T20:43:12.257Z,25.95
2023-04-10T20:45:40.103Z,31.08
2023-04-10T20:48:07.840Z,35.17
2023-04-10T20:50:37.090Z,35.17
2023-04-10T20:53:04.501Z,35.65
2023-04-10T20:55:31.777Z,36.80
2023-04-10T20:58:02.355Z,40.45
2023-04-10T21:00:31.047Z,33.72
2023-04-10T21:02:58.759Z,32.10
2023-04-10T21:05:26.310Z,31.67
2023-04-10T21:07:54.315Z,29.20
2023-04-10T21:10:21.581Z,28.52
2023-04-10T21:12:48.931Z,25.80
2023-04-10T21:15:16.330Z,27.85
2023-04-10T21:17:43.628Z,23.98
2023-04-10T21:20:11.236Z,24.52
2023-04-10T21:22:38.692Z,21.17
2023-04-10T21:25:06.382Z,22.45
2023-04-10T21:27:33.656Z,25.75
2023-04-10T21:30:01.045Z,21.63
2023-04-10T21:32:28.342Z,19.95
2023-04-10T21:34:55.755Z,17.65
2023-04-10T21:37:23.045Z,30.25
2023-04-10T21:39:50.363Z,17.50
2023-04-10T21:42:19.377Z,25.33
2023-04-10T21:44:46.681Z,33.83
2023-04-10T21:47:13.932Z,27.50
2023-04-10T21:49:41.193Z,30.73
2023-04-10T21:52:09.677Z,34.45
2023-04-10T21:54:36.923Z,32.03
2023-04-10T21:57:04.265Z,29.58
2023-04-10T21:59:32.282Z,28.35
2023-04-10T22:01:59.547Z,30.27
2023-04-10T22:04:27.851Z,33.67
2023-04-10T22:06:55.403Z,38.97
2023-04-10T22:09:22.762Z,37.00
2023-04-10T22:11:50.095Z,31.52
2023-04-10T22:14:19.346Z,33.70
2023-04-10T22:16:48.156Z,36.10
2023-04-10T22:19:15.591Z,36.30
2023-04-10T22:21:42.893Z,30.38
2023-04-10T22:24:10.320Z,33.17
2023-04-10T22:26:37.592Z,31.20
2023-04-10T22:29:05.271Z,33.40
2023-04-10T22:31:32.556Z,28.27
2023-04-10T22:33:59.873Z,28.20
2023-04-10T22:36:32.601Z,24.10
2023-04-10T22:38:59.826Z,31.08
2023-04-10T22:41:27.145Z,26.17
2023-04-10T22:43:54.465Z,31.05
2023-04-10T22:46:21.832Z,27.38
2023-04-10T22:48:49.168Z,25.75
2023-04-10T22:51:16.430Z,24.17
2023-04-10T22:53:43.849Z,28.13
2023-04-10T22:56:11.494Z,29.50
2023-04-10T22:58:39.708Z,25.52
2023-04-10T23:01:11.784Z,30.88
2023-04-10T23:03:39.145Z,32.47
2023-04-10T23:06:06.501Z,35.22
2023-04-10T23:08:33.861Z,30.05
2023-04-10T23:11:01.078Z,28.33
2023-04-10T23:13:28.365Z,27.23
2023-04-10T23:15:56.531Z,28.40
2023-04-10T23:18:23.796Z,28.65
2023-04-10T23:20:51.242Z,22.25
2023-04-10T23:23:18.746Z,24.58
